• Join FlightAware (Why Join?)
  • Login
  • US Flag 
09:59AM EDT


 

Airport Tracker/Info


-or-


 

Live Flight TrackerFlight Track Log ✈ N21315 ✈ 23-Apr-2013 ✈ KHAO - KBKL

Flight Track Log - Related Links

Times and Time Zones

All times are in EDT time to prevent confusion due to time zone crossing. See the N21315 flight status page for this flight to view local times or setup timezone preferences in your user account.

Time Position Orientation Groundspeed Altitude Reporting Facility
EDT Latitude Longitude Course Direction KTS MPH feet Rate Location/Type
09:31AM 39.4167 -84.3167 63° Northeast 109 125 4,200  Level Cincinnati TRACON
09:32AM 39.4222 -84.3028 63° Northeast 109 125 4,500 360 Climbing Indianapolis Center
09:32AM 39.4339 -84.2803 56° Northeast 111 128 4,700 240 Climbing Indianapolis Center
09:33AM 39.4419 -84.2678 50° Northeast 117 135 4,800 360 Climbing Indianapolis Center
09:33AM 39.4522 -84.2461 58° Northeast 113 130 5,100 360 Climbing Indianapolis Center
09:34AM 39.4611 -84.2350 44° Northeast 116 133 5,200 360 Climbing Indianapolis Center
09:34AM 39.4756 -84.2175 43° Northeast 114 131 5,500 360 Climbing Indianapolis Center
09:35AM 39.4844 -84.2056 46° Northeast 115 132 5,600 480 Climbing Indianapolis Center
09:35AM 39.4981 -84.1886 44° Northeast 113 130 6,000 480 Climbing Indianapolis Center
09:36AM 39.5211 -84.1594 44° Northeast 113 130 6,500 480 Climbing Indianapolis Center
09:37AM 39.5289 -84.1492 46° Northeast 113 130 6,700 540 Climbing Indianapolis Center
09:37AM 39.5419 -84.1297 49° Northeast 112 129 7,100 600 Climbing Indianapolis Center
09:38AM 39.5500 -84.1197 44° Northeast 108 124 7,300 480 Climbing Indianapolis Center
09:38AM 39.5681 -84.0997 40° Northeast 108 124 7,600 420 Climbing Indianapolis Center
09:39AM 39.5936 -84.0744 37° Northeast 110 127 8,100 360 Climbing Indianapolis Center
09:40AM 39.6206 -84.0469 38° Northeast 116 133 8,400 360 Climbing Indianapolis Center
09:42AM 39.6500 -84.0189 36° Northeast 120 138 8,900 240 Climbing Indianapolis Center
09:43AM 39.6742 -83.9889 44° Northeast 124 143 9,000 60 Climbing Indianapolis Center
09:44AM 39.7036 -83.9517 44° Northeast 135 155 9,100  Climbing Indianapolis Center
09:45AM 39.7342 -83.9136 44° Northeast 144 166 9,000  Descending Indianapolis Center
09:46AM 39.7639 -83.8772 43° Northeast 147 169 9,100  Climbing Indianapolis Center
09:47AM 39.7986 -83.8339 44° Northeast 146 168 9,000 -60 Descending Indianapolis Center
09:48AM 39.8289 -83.7961 44° Northeast 147 169 9,000  Level Indianapolis Center
09:49AM 39.8589 -83.7581 44° Northeast 148 170 9,000 -60 Level Indianapolis Center
09:50AM 39.8883 -83.7208 44° Northeast 148 170 8,900  Descending Indianapolis Center
09:51AM 39.9203 -83.6847 41° Northeast 148 170 9,000  Climbing Indianapolis Center
09:52AM 39.9483 -83.6494 44° Northeast 140 161 9,000  Level Indianapolis Center
09:53AM 39.9781 -83.6150 42° Northeast 144 166 9,000 -60 Level Indianapolis Center
09:54AM 40.0081 -83.5778 44° Northeast 147 169 8,900  Descending Indianapolis Center
09:55AM 40.0378 -83.5406 44° Northeast 138 159 9,000 60 Climbing Indianapolis Center
09:56AM 40.0656 -83.5058 44° Northeast 138 159 9,100  Climbing Indianapolis Center
09:57AM 40.0933 -83.4683 46° Northeast 144 166 9,000 -120 Descending Indianapolis Center
09:58AM 40.1275 -83.4289 41° Northeast 146 168 8,900  Descending Indianapolis Center
09:59AM 40.1508 -83.3992 44° Northeast 130 150 9,000  Climbing Indianapolis Center
10:00AM 40.1803 -83.3644 42° Northeast 141 162 8,900 -120 Descending Indianapolis Center
10:00AM 40.1858 -83.3564 48° Northeast 140 161 8,900  Level Indianapolis Center
10:01AM 40.2100 -83.3297 40° Northeast 142 163 8,900  Level Indianapolis Center
10:01AM 40.2161 -83.3217 45° Northeast 143 165 8,900 60 Level Indianapolis Center
10:02AM 40.2431 -83.2872 44° Northeast 136 157 9,000  Climbing Indianapolis Center
10:03AM 40.2728 -83.2525 42° Northeast 141 162 9,000  Level Indianapolis Center
10:04AM 40.2997 -83.2167 45° Northeast 138 159 9,000  Level Indianapolis Center
10:05AM 40.3328 -83.1736 45° Northeast 142 163 9,000  Level Indianapolis Center
10:06AM 40.3622 -83.1369 43° Northeast 145 167 9,000  Level Indianapolis Center
10:07AM 40.3903 -83.0989 46° Northeast 144 166 9,000  Level Indianapolis Center
10:08AM 40.4169 -83.0606 48° Northeast 141 162 9,000 -60 Level Indianapolis Center
10:09AM 40.4464 -83.0233 44° Northeast 144 166 8,900 -120 Descending Indianapolis Center
10:10AM 40.4736 -82.9822 49° Northeast 146 168 8,800  Descending Indianapolis Center
10:11AM 40.5003 -82.9467 45° Northeast 138 159 9,000 60 Climbing Indianapolis Center
10:12AM 40.5303 -82.9067 45° Northeast 139 160 9,000  Level Indianapolis Center
10:14AM 40.5592 -82.8700 44° Northeast 143 165 9,000 -60 Level Indianapolis Center
10:15AM 40.5869 -82.8322 46° Northeast 143 165 8,900 -60 Descending Indianapolis Center
10:16AM 40.6139 -82.7933 48° Northeast 142 163 8,900  Level Indianapolis Center
10:17AM 40.6478 -82.7494 44° Northeast 145 167 8,900 -60 Level Indianapolis Center
10:18AM 40.6753 -82.7100 47° Northeast 145 167 8,800 -60 Descending Indianapolis Center
10:18AM 40.6919 -82.6889 44° Northeast 144 166 8,800 60 Level Cleveland Center
10:19AM 40.7047 -82.6731 43° Northeast 142 163 8,900 180 Climbing Cleveland Center
10:19AM 40.7217 -82.6514 44° Northeast 141 162 9,000 60 Climbing Cleveland Center
10:20AM 40.7303 -82.6381 50° Northeast 142 163 9,000 -120 Level Cleveland Center
10:20AM 40.7517 -82.6142 40° Northeast 147 169 8,900 -120 Descending Cleveland Center
10:21AM 40.7622 -82.5953 54° Northeast 142 163 8,900  Level Cleveland Center
10:21AM 40.7750 -82.5819 38° Northeast 149 171 8,900  Level Cleveland Center
10:22AM 40.7900 -82.5606 47° Northeast 142 163 8,900  Level Cleveland Center
10:22AM 40.8069 -82.5389 44° Northeast 146 168 8,900 -120 Level Cleveland Center
10:23AM 40.8197 -82.5231 43° Northeast 142 163 8,800 -120 Descending Cleveland Center
10:23AM 40.8369 -82.5014 44° Northeast 147 169 8,800  Level Cleveland Center
10:24AM 40.8475 -82.4853 49° Northeast 142 163 8,800  Level Cleveland Center
10:24AM 40.8667 -82.4611 44° Northeast 143 165 8,800  Level Cleveland Center
10:25AM 40.8753 -82.4478 49° Northeast 142 163 8,800 60 Level Cleveland Center
10:25AM 40.8944 -82.4261 41° Northeast 144 166 8,900 180 Climbing Cleveland Center
10:26AM 40.9050 -82.4128 44° Northeast 142 163 9,000 180 Climbing Cleveland Center
10:26AM 40.9200 -82.3911 48° Northeast 137 158 9,100 60 Climbing Cleveland Center
10:27AM 40.9306 -82.3778 44° Northeast 142 163 9,100  Level Cleveland Center
10:28AM 40.9519 -82.3508 44° Northeast 141 162 9,100  Level Cleveland Center
10:28AM 40.9775 -82.3158 46° Northeast 145 167 9,100 -60 Level Cleveland Center
10:29AM 41.0072 -82.2781 44° Northeast 145 167 9,000  Descending Cleveland Center
10:30AM 41.0225 -82.2372 64° Northeast 135 155 9,100  Climbing Cleveland Center
10:31AM 41.0419 -82.1853 64° Northeast 142 163 9,000 -60 Descending Cleveland Center
10:32AM 41.0633 -82.1392 58° Northeast 142 163 9,000 -60 Level Cleveland Center
10:33AM 41.0806 -82.0953 62° Northeast 135 155 8,900 -240 Descending Cleveland Center
10:35AM 41.1000 -82.0544 58° Northeast 130 150 8,600 -360 Descending Cleveland Center
10:36AM 41.1150 -82.0108 65° Northeast 133 153 8,200 -420 Descending Cleveland Center
10:37AM 41.1303 -81.9642 66° East 138 159 7,800 -540 Descending Cleveland Center
10:38AM 41.1475 -81.9178 64° Northeast 139 160 7,200 -600 Descending Cleveland Center
10:39AM 41.1669 -81.8683 62° Northeast 139 160 6,700 -480 Descending Cleveland Center
10:40AM 41.1961 -81.8497 26° Northeast 126 145 6,300 -360 Descending Cleveland Center
10:41AM 41.2297 -81.8339 20° North 130 150 6,000 -480 Descending Cleveland Center
10:42AM 41.2675 -81.8153 20° North 125 144 5,400 -720 Descending Cleveland Center
10:43AM 41.2969 -81.7908 32° Northeast 140 161 4,600 -780 Descending Cleveland Center
10:44AM 41.3264 -81.7556 42° Northeast 131 151 3,900 -600 Descending Cleveland Center
10:45AM 41.3497 -81.7172 51° Northeast 138 159 3,500 -480 Descending Cleveland Center
10:46AM 41.3772 -81.6817 44° Northeast 147 169 3,000 -180 Descending Cleveland Center
10:47AM 41.4089 -81.6297 51° Northeast 141 162 3,100 60 Climbing Cleveland Center
10:48AM 41.4383 -81.6108 26° Northeast 147 169 3,200 -60 Climbing Cleveland Center
10:49AM 41.4719 -81.5975 17° North 129 148 3,000 -600 Descending Cleveland Center
10:50AM 41.5053 -81.5897 10° North 133 153 2,200 -900 Descending Cleveland Center